• Join FlightAware (Why Join?)
  • Login
  • US Flag 
06:27AM EDT


 

Airport Tracker/Info


-or-


 

Live Flight TrackerFlight Track Log ✈ RPA3331 ✈ 26-Jun-2013 ✈ KDCA - KMSY

Flight Track Log - Related Links

Times and Time Zones

All times are in EDT time to prevent confusion due to time zone crossing. See the RPA3331 flight status page for this flight to view local times or setup timezone preferences in your user account.

Time Position Orientation Groundspeed Altitude Reporting Facility
EDT Latitude Longitude Course Direction KTS MPH feet Rate Location/Type
04:56PM 38.8167 -77.0333 270° West 145 167 1,300  Level Potomac TRACON
04:57PM 38.7833 -77.0333 180° South 202 232 2,000 1,260 Climbing Potomac TRACON
04:58PM 38.7500 -77.1000 237° Southwest 262 302 3,700 2,340 Climbing Potomac TRACON
04:59PM 38.8502 -77.8557 270° West  Level FlightAware Approximate
04:59PM 38.7333 -77.1833 256° West 270 311 6,500  Level Potomac TRACON
05:00PM 38.8502 -78.0613 270° West  Level FlightAware Approximate
05:00PM 38.7667 -77.2833 293° West 278 320 9,600  Level Potomac TRACON
05:01PM 38.8500 -78.2669 270° West  Level FlightAware Approximate
05:02PM 38.8500 -78.4725 270° West  Level FlightAware Approximate
05:03PM 38.8569 -77.4711 302° West 309 356 14,400  Level Washington Center
05:04PM 38.8592 -77.5992 271° West 304 350 17,000 2,100 Climbing Washington Center
05:05PM 38.8572 -77.7136 269° West 310 357 18,700 1,740 Climbing Washington Center
05:06PM 38.8572 -77.8256 270° West 310 357 20,500 1,560 Climbing Washington Center
05:08PM 38.8550 -78.0494 269° West 326 375 23,400 1,260 Climbing Washington Center
05:09PM 38.8542 -78.1853 270° West 342 394 24,500 1,140 Climbing Washington Center
05:10PM 38.8533 -78.3186 270° West 356 410 25,700 1,140 Climbing Washington Center
05:11PM 38.8481 -78.4544 267° West 377 434 26,800 1,020 Climbing Washington Center
05:12PM 38.8300 -78.5922 260° West 390 449 27,800 1,020 Climbing Washington Center
05:13PM 38.8119 -78.7328 261° West 400 460 28,900 960 Climbing Washington Center
05:14PM 38.7914 -78.8783 260° West 407 468 29,900 840 Climbing Washington Center
05:15PM 38.7678 -79.0478 260° West 412 474 30,800 780 Climbing Washington Center
05:16PM 38.7467 -79.1983 260° West 419 482 31,500 780 Climbing Washington Center
05:17PM 38.7253 -79.3517 260° West 429 494 32,500 900 Climbing Washington Center
05:18PM 38.7061 -79.4972 260° West 429 494 33,300 720 Climbing Washington Center
05:19PM 38.6850 -79.6317 259° West 429 494 34,000 300 Climbing Washington Center
05:20PM 38.6633 -79.7794 259° West 429 494 34,000  Level Washington Center
05:21PM 38.6414 -79.9269 259° West 429 494 34,000  Level Washington Center
05:22PM 38.6167 -80.0878 259° West 429 494 34,000  Level Washington Center
05:23PM 38.5922 -80.2350 258° West 429 494 34,000  Level Washington Center
05:24PM 38.5717 -80.3850 260° West 429 494 34,000 -300 Level Washington Center
05:25PM 38.5569 -80.4697 257° West 421 484 33,500  Descending Indianapolis Center
05:26PM 38.5347 -80.6167 259° West 421 484 34,000 240 Climbing Indianapolis Center
05:27PM 38.5114 -80.7636 259° West 422 486 34,000  Level Indianapolis Center
05:28PM 38.4886 -80.9108 259° West 421 484 34,000  Level Indianapolis Center
05:29PM 38.4653 -81.0589 259° West 424 488 34,000  Level Indianapolis Center
05:30PM 38.4364 -81.2350 258° West 420 483 34,000  Level Indianapolis Center
05:31PM 38.4131 -81.3833 259° West 422 486 34,000  Level Indianapolis Center
05:32PM 38.3886 -81.5314 258° West 421 484 34,000  Level Indianapolis Center
05:33PM 38.3642 -81.6797 258° West 423 487 34,000  Level Indianapolis Center
05:34PM 38.3344 -81.8250 255° West 420 483 34,000  Level Indianapolis Center
05:35PM 38.2958 -81.9644 251° West 417 480 34,000  Level Indianapolis Center
05:36PM 38.2167 -82.0700 226° Southwest 423 487 34,000  Level Indianapolis Center
05:37PM 38.1194 -82.1500 213° Southwest 418 481 34,000  Level Indianapolis Center
05:38PM 38.0117 -82.2364 212° Southwest 423 487 34,000  Level Indianapolis Center
05:39PM 37.9131 -82.3181 213° Southwest 422 486 34,000  Level Indianapolis Center
05:40PM 37.7964 -82.4106 212° Southwest 424 488 34,000  Level Indianapolis Center
05:41PM 37.6967 -82.4914 213° Southwest 425 489 34,000  Level Indianapolis Center
05:42PM 37.5969 -82.5736 213° Southwest 428 493 34,000  Level Indianapolis Center
05:43PM 37.4958 -82.6547 212° Southwest 432 497 34,000  Level Indianapolis Center
05:44PM 37.3947 -82.7347 212° Southwest 431 496 34,000  Level Indianapolis Center
05:45PM 37.2950 -82.8158 213° Southwest 430 495 34,000  Level Indianapolis Center
05:46PM 37.1764 -82.9094 212° Southwest 434 499 34,000  Level Indianapolis Center
05:47PM 37.0767 -82.9903 213° Southwest 432 497 34,000  Level Indianapolis Center
05:48PM 36.9756 -83.0703 212° Southwest 436 502 34,000  Level Indianapolis Center
05:49PM 36.8728 -83.1478 211° Southwest 437 503 34,000  Level Indianapolis Center
05:50PM 36.7533 -83.2417 212° Southwest 437 503 34,000  Level Indianapolis Center
05:51PM 36.6506 -83.3214 212° Southwest 436 502 34,000  Level Indianapolis Center
05:52PM 36.5475 -83.4014 212° Southwest 436 502 34,000  Level Indianapolis Center
05:53PM 36.4447 -83.4817 212° Southwest 436 502 34,000  Level Indianapolis Center
05:54PM 36.3469 -83.5561 212° Southwest 438 504 34,000  Level Indianapolis Center
05:55PM 36.2222 -83.6536 212° Southwest 440 506 34,000  Level Indianapolis Center
05:56PM 36.1206 -83.7356 213° Southwest 438 504 34,000  Level Atlanta Center
05:57PM 36.0142 -83.8153 211° Southwest 438 504 34,000  Level Atlanta Center
05:58PM 35.9122 -83.8953 212° Southwest 443 510 34,000  Level Atlanta Center
05:59PM 35.8267 -84.0056 226° Southwest 443 510 34,000  Level Atlanta Center
06:00PM 35.7475 -84.1156 228° Southwest 437 503 34,000  Level Atlanta Center
06:01PM 35.6681 -84.2281 229° Southwest 437 503 34,000  Level Atlanta Center
06:02PM 35.6011 -84.3172 227° Southwest 437 503 34,000  Level Atlanta Center
06:03PM 35.5153 -84.4394 229° Southwest 437 503 34,000  Level Atlanta Center
06:04PM 35.4333 -84.5511 228° Southwest 437 503 34,000  Level Atlanta Center
06:05PM 35.3517 -84.6625 228° Southwest 437 503 34,000  Level Atlanta Center
06:06PM 35.2717 -84.7739 229° Southwest 437 503 34,000  Level Atlanta Center
06:07PM 35.1917 -84.8850 229° Southwest 437 503 34,000  Level Atlanta Center
06:08PM 35.1094 -84.9958 228° Southwest 437 503 34,000  Level Atlanta Center
06:09PM 35.0294 -85.1042 228° Southwest 437 503 34,000  Level Atlanta Center
06:10PM 34.9511 -85.2094 228° Southwest 437 503 34,000  Level Atlanta Center
06:11PM 34.8708 -85.3197 228° Southwest 437 503 34,000  Level Atlanta Center
06:12PM 34.7881 -85.4322 228° Southwest 437 503 34,000  Level Atlanta Center
06:13PM 34.7075 -85.5397 228° Southwest 437 503 34,000  Level Atlanta Center
06:14PM 34.6247 -85.6492 227° Southwest 437 503 34,000  Level Atlanta Center
06:15PM 34.5419 -85.7586 227° Southwest 437 503 34,000  Level Atlanta Center
06:16PM 34.4633 -85.8628 228° Southwest 432 497 34,000  Level Atlanta Center
06:17PM 34.3803 -85.9719 227° Southwest 438 504 34,000  Level Atlanta Center
06:18PM 34.3014 -86.0781 228° Southwest 438 504 34,000  Level Atlanta Center
06:19PM 34.2181 -86.1867 227° Southwest 438 504 34,000  Level Atlanta Center
06:20PM 34.1369 -86.2925 227° Southwest 438 504 34,000  Level Atlanta Center
06:21PM 34.0533 -86.3981 226° Southwest 438 504 34,000  Level Atlanta Center
06:22PM 33.9719 -86.5036 227° Southwest 438 504 34,000  Level Atlanta Center
06:23PM 33.8842 -86.6186 227° Southwest 438 504 34,000  Level Atlanta Center
06:24PM 33.8025 -86.7236 227° Southwest 438 504 34,000  Level Atlanta Center
06:25PM 33.7208 -86.8311 228° Southwest 438 504 34,000  Level Atlanta Center
06:26PM 33.6411 -86.9383 228° Southwest 438 504 34,000  Level Atlanta Center
06:27PM 33.5697 -87.0506 233° Southwest 432 497 34,000  Level Atlanta Center
06:28PM 33.4939 -87.1600 230° Southwest 432 497 34,000  Level Atlanta Center
06:29PM 33.4200 -87.2742 232° Southwest 432 497 34,000  Level Atlanta Center
06:30PM 33.3439 -87.3858 231° Southwest 437 503 34,000  Level Atlanta Center
06:31PM 33.2697 -87.4997 232° Southwest 437 503 34,000  Level Atlanta Center
06:32PM 33.1914 -87.6133 231° Southwest 437 503 34,000  Level Atlanta Center
06:33PM 33.1158 -87.7258 231° Southwest 416 479 34,000  Level Memphis Center
06:34PM 33.0408 -87.8369 231° Southwest 422 486 34,000  Level Memphis Center
06:35PM 32.9761 -87.9378 233° Southwest 428 493 34,000  Level Memphis Center
06:36PM 32.8989 -88.0514 231° Southwest 428 493 34,000  Level Memphis Center
06:37PM 32.8258 -88.1594 231° Southwest 428 493 34,000  Level Memphis Center
06:38PM 32.7397 -88.2653 226° Southwest 434 499 34,000  Level Memphis Center
06:39PM 32.6558 -88.3611 224° Southwest 434 499 34,000  Level Memphis Center
06:40PM 32.5656 -88.4642 224° Southwest 440 506 34,000 240 Level Memphis Center
06:41PM 32.4817 -88.5669 226° Southwest 447 514 34,500  Climbing Memphis Center
06:42PM 32.3931 -88.6672 224° Southwest 447 514 34,000 -300 Descending Memphis Center
06:43PM 32.3047 -88.7647 223° Southwest 447 514 34,000  Level Memphis Center
06:44PM 32.2161 -88.8669 224° Southwest 447 514 34,000  Level Memphis Center
06:45PM 32.1297 -88.9664 224° Southwest 447 514 34,000  Level Memphis Center
06:46PM 32.0431 -89.0683 225° Southwest 447 514 34,000  Level Memphis Center
06:47PM 31.9606 -89.1600 223° Southwest 453 521 34,000 -900 Level Memphis Center
06:49PM 31.8369 -89.2983 224° Southwest 445 512 32,000 -1,920 Descending Houston Center
06:50PM 31.7481 -89.4006 224° Southwest 449 517 29,600 -2,160 Descending Houston Center
06:51PM 31.6594 -89.4986 223° Southwest 444 511 27,500 -1,740 Descending Houston Center
06:52PM 31.5539 -89.5897 216° Southwest 437 503 26,100 -1,260 Descending Houston Center
06:53PM 31.4500 -89.6494 206° Southwest 423 487 25,000 -1,020 Descending Houston Center
06:54PM 31.3297 -89.7225 207° Southwest 409 471 24,000 -540 Descending Houston Center
06:55PM 31.2322 -89.7831 208° Southwest 400 460 24,000 -660 Level Houston Center
06:56PM 31.1344 -89.8431 208° Southwest 398 458 22,700 -1,620 Descending Houston Center
06:57PM 31.0386 -89.9014 208° Southwest 392 451 20,700 -1,860 Descending Houston Center
06:58PM 30.9456 -89.9572 207° Southwest 380 437 18,900 -1,740 Descending Houston Center
06:59PM 30.8564 -90.0117 208° Southwest 368 423 17,200 -1,860 Descending Houston Center
07:00PM 30.7767 -90.0594 207° Southwest 348 400 15,600 -1,860 Descending Houston Center
07:01PM 30.6681 -90.1269 208° Southwest 339 390 13,400 -1,680 Descending Houston Center
07:02PM 30.5958 -90.1589 201° Southwest 334 384 12,100 -1,560 Descending Houston Center
07:03PM 30.5147 -90.1669 185° South 314 361 10,700 -1,680 Descending Houston Center
07:04PM 30.4250 -90.1781 186° South 295 339 8,800 -1,680 Descending Houston Center
07:05PM 30.3244 -90.1900 186° South 288 331 6,700 -1,620 Descending Houston Center
07:06PM 30.2753 -90.1961 186° South 275 316 5,700 -1,620 Descending Houston Center
07:07PM 30.2022 -90.2039 185° South 266 306 4,100 -1,440 Descending Houston Center
07:08PM 30.1317 -90.2139 187° South 252 290 2,800 -1,320 Descending Houston Center